Time;durP1;ratioP1;P1;durP2;ratioP2;P2;SDS_P1;SDS_P2;PMS_P1;PMS_P2;Temp;Humidity;BMP_temperature;BMP_pressure;BME280_temperature;BME280_humidity;BME280_pressure;Samples;Min_cycle;Max_cycle;Signal;HPM_P1;HPM_P2
2022/05/22 00:01:12;;;;;;;1.95;1.85;;;10.90;99.90;;;;;;4699474;30;20528;-80
2022/05/22 00:03:41;;;;;;;2.25;2.15;;;10.90;99.90;;;;;;4700288;30;20053;-80
2022/05/22 00:06:09;;;;;;;2.33;2.15;;;10.90;99.90;;;;;;4670481;30;20054;-80
2022/05/22 00:08:37;;;;;;;2.95;2.70;;;10.90;99.90;;;;;;4651201;30;20054;-80
2022/05/22 00:11:04;;;;;;;3.35;2.72;;;10.90;99.90;;;;;;4681040;30;20050;-80
2022/05/22 00:13:32;;;;;;;5.53;2.28;;;10.90;99.90;;;;;;4658806;30;20548;-80
2022/05/22 00:18:46;;;;;;;2.15;1.95;;;10.90;99.90;;;;;;4695441;30;20502;-80
2022/05/22 00:21:14;;;;;;;2.17;1.98;;;10.90;99.90;;;;;;4697663;30;20501;-80
2022/05/22 00:23:43;;;;;;;2.35;2.25;;;10.90;99.90;;;;;;4682563;30;20057;-80
2022/05/22 00:26:11;;;;;;;2.10;2.00;;;10.90;99.90;;;;;;4681633;30;20054;-80
2022/05/22 00:28:39;;;;;;;2.72;2.35;;;10.80;99.90;;;;;;4697433;30;20050;-80
2022/05/22 00:31:07;;;;;;;3.40;3.10;;;10.70;99.90;;;;;;4681755;30;20099;-80
2022/05/22 00:33:35;;;;;;;4.53;2.53;;;10.70;99.90;;;;;;4696566;30;20057;-80
2022/05/22 00:36:04;;;;;;;2.20;1.85;;;10.70;99.90;;;;;;4696568;30;20061;-80
2022/05/22 00:38:32;;;;;;;3.38;2.50;;;10.60;99.90;;;;;;4681935;30;20049;-80
2022/05/22 00:41:00;;;;;;;2.28;2.17;;;10.60;99.90;;;;;;4681910;30;20053;-81
2022/05/22 00:43:37;;;;;;;12.55;4.57;;;10.60;99.90;;;;;;4682320;30;20143;-80
2022/05/22 00:46:08;;;;;;;3.38;2.42;;;10.50;99.90;;;;;;4681218;30;20054;-80
2022/05/22 00:48:36;;;;;;;5.88;3.47;;;10.50;99.90;;;;;;4664039;30;20062;-80
2022/05/22 00:51:13;;;;;;;6.72;2.85;;;10.50;99.90;;;;;;4679456;30;20058;-80
2022/05/22 00:54:08;;;;;;;2.30;2.10;;;10.60;99.90;;;;;;4678970;30;20057;-81
2022/05/22 00:56:43;;;;;;;2.53;2.42;;;10.50;99.90;;;;;;4678947;30;20509;-80
2022/05/22 00:59:14;;;;;;;2.15;1.95;;;10.40;99.90;;;;;;4679460;30;20057;-80
2022/05/22 01:01:44;;;;;;;2.10;2.00;;;10.40;99.90;;;;;;4664032;30;20046;-81
2022/05/22 01:04:20;;;;;;;2.00;1.90;;;10.40;99.90;;;;;;4664628;30;20058;-81
2022/05/22 01:06:51;;;;;;;2.53;2.40;;;10.40;99.90;;;;;;4664886;30;20528;-80
2022/05/22 01:09:20;;;;;;;3.70;3.40;;;10.40;99.90;;;;;;4679595;30;20079;-80
2022/05/22 01:11:53;;;;;;;3.67;2.50;;;10.30;99.90;;;;;;4679305;30;20053;-81
2022/05/22 01:14:26;;;;;;;3.58;3.30;;;10.20;99.90;;;;;;4678018;30;20823;-80
2022/05/22 01:17:04;;;;;;;2.70;2.40;;;10.20;99.90;;;;;;4678808;30;20058;-80
2022/05/22 01:19:33;;;;;;;2.30;2.08;;;10.20;99.90;;;;;;4678804;30;20061;-80
2022/05/22 01:22:06;;;;;;;2.55;2.35;;;10.20;99.90;;;;;;4664371;30;20539;-81
2022/05/22 01:24:37;;;;;;;2.53;2.03;;;10.20;99.90;;;;;;4664927;30;20088;-81
2022/05/22 01:27:11;;;;;;;3.63;2.30;;;10.20;99.90;;;;;;4678996;30;20508;-80
2022/05/22 01:29:50;;;;;;;4.57;3.05;;;10.10;99.90;;;;;;4664961;30;20058;-80
2022/05/22 01:32:19;;;;;;;5.07;2.80;;;10.10;99.90;;;;;;4664225;30;20065;-80
2022/05/22 01:34:47;;;;;;;2.33;2.20;;;10.10;99.90;;;;;;4651080;30;20058;-81
2022/05/22 01:37:15;;;;;;;4.82;2.60;;;10.10;99.90;;;;;;4664262;30;20057;-81
2022/05/22 01:39:44;;;;;;;6.10;3.70;;;10.00;99.90;;;;;;4678078;30;20505;-81
2022/05/22 01:42:12;;;;;;;2.90;2.70;;;10.10;99.90;;;;;;4664162;30;20054;-81
2022/05/22 01:44:40;;;;;;;3.08;2.85;;;10.00;99.90;;;;;;4649843;30;20061;-80
2022/05/22 01:47:09;;;;;;;6.63;3.33;;;9.90;99.90;;;;;;4664586;30;20062;-81
2022/05/22 01:49:38;;;;;;;3.75;2.40;;;9.90;99.90;;;;;;4670046;30;20079;-81
2022/05/22 01:52:08;;;;;;;8.52;4.18;;;9.90;99.90;;;;;;4664823;30;20058;-81
2022/05/22 01:54:37;;;;;;;2.78;2.55;;;9.90;99.90;;;;;;4653505;30;20064;-80
2022/05/22 01:57:05;;;;;;;3.50;3.20;;;10.00;99.90;;;;;;4666806;30;20054;-80
2022/05/22 01:59:33;;;;;;;3.92;2.83;;;9.90;99.90;;;;;;4666648;30;20065;-80
2022/05/22 02:02:17;;;;;;;4.22;3.83;;;9.90;99.90;;;;;;4666627;30;20054;-81
2022/05/22 02:04:45;;;;;;;2.97;2.60;;;10.00;99.90;;;;;;4666775;30;20509;-80
2022/05/22 02:10:05;;;;;;;3.05;2.75;;;10.00;99.90;;;;;;4680736;30;20065;-80
2022/05/22 02:12:33;;;;;;;4.78;2.97;;;9.90;99.90;;;;;;4681345;30;20049;-81
2022/05/22 02:15:05;;;;;;;2.40;2.20;;;9.90;99.90;;;;;;4681235;30;20064;-81
2022/05/22 02:17:33;;;;;;;4.10;3.80;;;9.90;99.90;;;;;;4680951;30;20061;-81
2022/05/22 02:20:03;;;;;;;3.90;2.00;;;9.90;99.90;;;;;;4667150;30;20693;-81
2022/05/22 02:22:41;;;;;;;5.80;4.40;;;9.90;99.90;;;;;;4679705;30;20065;-81
2022/05/22 02:25:11;;;;;;;;;;;9.90;99.90;;;;;;4686157;30;20417;-81
2022/05/22 02:27:40;;;;;;;2.65;2.45;;;9.90;99.90;;;;;;4695196;30;20299;-81
2022/05/22 02:30:10;;;;;;;3.80;3.50;;;9.90;99.90;;;;;;4697464;30;20050;-80
2022/05/22 02:32:39;;;;;;;26.75;4.18;;;9.70;99.90;;;;;;4713771;30;20068;-80
2022/05/22 02:35:10;;;;;;;4.65;3.30;;;9.70;99.90;;;;;;4713065;30;20049;-81
2022/05/22 02:37:50;;;;;;;4.45;2.65;;;9.60;99.90;;;;;;4698231;30;20567;-81
2022/05/22 02:40:51;;;;;;;3.22;2.92;;;9.50;99.90;;;;;;4696685;30;20064;-80
2022/05/22 02:43:19;;;;;;;2.70;2.35;;;9.50;99.90;;;;;;4698250;30;20535;-80
2022/05/22 02:45:54;;;;;;;3.03;2.50;;;9.60;99.90;;;;;;4697643;30;20045;-81
2022/05/22 02:48:22;;;;;;;16.13;2.75;;;9.60;99.90;;;;;;4682862;30;20057;-81
2022/05/22 02:50:58;;;;;;;2.42;2.30;;;9.60;99.90;;;;;;4700850;30;20519;-80
2022/05/22 02:53:25;;;;;;;2.53;2.22;;;9.40;99.90;;;;;;4715591;30;20060;-81
2022/05/22 02:56:17;;;;;;;3.40;3.13;;;9.20;99.90;;;;;;4703409;30;20080;-81
2022/05/22 02:59:02;;;;;;;2.50;2.15;;;9.20;99.90;;;;;;4701300;30;20056;-81
2022/05/22 03:01:38;;;;;;;2.78;2.55;;;9.10;99.90;;;;;;4687711;30;20045;-80
2022/05/22 03:04:05;;;;;;;4.50;4.07;;;9.10;99.90;;;;;;4686508;30;20424;-80
2022/05/22 03:06:39;;;;;;;7.15;5.30;;;9.10;99.90;;;;;;4698210;30;20054;-80
2022/05/22 03:09:14;;;;;;;2.80;2.60;;;9.10;99.90;;;;;;4683824;30;20050;-81
2022/05/22 03:11:46;;;;;;;2.80;2.55;;;9.20;99.90;;;;;;4684126;30;20078;-81
2022/05/22 03:14:16;;;;;;;2.38;2.17;;;9.20;99.90;;;;;;4698765;30;20058;-80
2022/05/22 03:16:44;;;;;;;3.40;2.70;;;9.00;99.90;;;;;;4683230;30;20069;-80
2022/05/22 03:19:45;;;;;;;2.50;2.30;;;9.00;99.90;;;;;;4679702;30;20058;-81
2022/05/22 03:22:17;;;;;;;3.58;3.28;;;8.90;99.90;;;;;;4655224;30;20428;-81
2022/05/22 03:24:45;;;;;;;2.92;2.67;;;9.00;99.90;;;;;;4669174;30;20057;-80
2022/05/22 03:27:15;;;;;;;2.83;2.63;;;9.00;99.90;;;;;;4683725;30;20081;-80
2022/05/22 03:29:45;;;;;;;2.28;2.17;;;9.00;99.90;;;;;;4668257;30;20050;-81
2022/05/22 03:32:14;;;;;;;3.60;2.88;;;9.00;99.90;;;;;;4669140;30;20057;-81
2022/05/22 03:34:43;;;;;;;6.80;2.63;;;9.10;99.90;;;;;;4655551;30;20088;-81
2022/05/22 03:37:11;;;;;;;3.47;2.20;;;9.10;99.90;;;;;;4655227;30;20061;-81
2022/05/22 03:39:40;;;;;;;2.20;2.10;;;9.10;99.90;;;;;;4668705;30;20065;-81
2022/05/22 03:42:10;;;;;;;2.85;2.65;;;9.10;99.90;;;;;;4683074;30;20057;-81
2022/05/22 03:44:38;;;;;;;3.67;2.55;;;9.10;99.90;;;;;;4668095;30;20061;-81
2022/05/22 03:47:07;;;;;;;5.07;2.25;;;9.20;99.90;;;;;;4669417;30;20060;-81
2022/05/22 03:49:54;;;;;;;3.08;2.88;;;9.30;99.90;;;;;;4656429;30;20049;-81
2022/05/22 03:52:23;;;;;;;2.72;2.53;;;9.30;99.90;;;;;;4699114;30;20053;-81
2022/05/22 03:54:50;;;;;;;3.33;2.17;;;9.50;99.90;;;;;;4700365;30;20067;-81
2022/05/22 03:57:18;;;;;;;5.50;2.45;;;9.50;99.90;;;;;;4714592;30;20041;-81
2022/05/22 03:59:46;;;;;;;3.72;3.47;;;9.70;99.90;;;;;;4714173;30;20067;-81
2022/05/22 04:02:14;;;;;;;3.15;2.92;;;9.70;99.90;;;;;;4685310;30;20091;-81
2022/05/22 04:04:44;;;;;;;4.60;2.78;;;9.80;99.90;;;;;;4699799;30;20070;-81
2022/05/22 04:07:25;;;;;;;5.68;4.22;;;9.80;99.90;;;;;;4715068;30;20504;-81
2022/05/22 04:09:57;;;;;;;2.45;2.13;;;9.80;99.90;;;;;;4685402;30;20083;-81
2022/05/22 04:12:35;;;;;;;3.63;2.83;;;9.90;99.90;;;;;;4684876;30;20053;-81
2022/05/22 04:15:06;;;;;;;2.90;2.70;;;9.90;99.90;;;;;;4699599;30;20084;-81
2022/05/22 04:17:35;;;;;;;2.88;2.65;;;10.00;99.90;;;;;;4699960;30;20092;-81
2022/05/22 04:20:15;;;;;;;2.75;2.50;;;9.90;99.90;;;;;;4685197;30;20064;-81
2022/05/22 04:25:29;;;;;;;2.88;2.45;;;10.10;99.90;;;;;;4699295;30;20065;-81
2022/05/22 04:27:58;;;;;;;4.97;1.88;;;10.20;99.90;;;;;;4685347;30;20061;-81
2022/05/22 04:30:26;;;;;;;2.45;2.25;;;10.30;99.90;;;;;;4684943;30;20061;-81
2022/05/22 04:33:02;;;;;;;2.70;2.50;;;10.30;99.90;;;;;;4671932;30;20050;-81
2022/05/22 04:35:31;;;;;;;2.80;2.60;;;10.30;99.90;;;;;;4685818;30;20436;-81
2022/05/22 04:38:02;;;;;;;8.25;3.60;;;10.40;99.90;;;;;;4698996;30;20084;-81
2022/05/22 04:40:31;;;;;;;7.05;2.53;;;10.60;99.90;;;;;;4699137;30;20497;-81
2022/05/22 04:42:59;;;;;;;2.22;2.13;;;10.80;99.90;;;;;;4685348;30;20083;-81
2022/05/22 04:45:27;;;;;;;4.18;2.20;;;11.10;99.90;;;;;;4684446;30;20049;-81
2022/05/22 04:48:02;;;;;;;6.38;3.15;;;11.30;99.90;;;;;;4699686;30;20063;-81
2022/05/22 04:50:50;;;;;;;9.50;3.05;;;11.60;99.90;;;;;;4671754;30;20053;-81
2022/05/22 04:53:29;;;;;;;4.15;3.50;;;11.90;99.90;;;;;;4684983;30;20062;-81
2022/05/22 04:56:17;;;;;;;5.10;2.25;;;12.10;99.90;;;;;;4686822;30;20065;-81
2022/05/22 04:58:50;;;;;;;2.20;2.03;;;12.40;99.90;;;;;;4699193;30;20049;-81
2022/05/22 05:01:18;;;;;;;2.60;2.17;;;12.70;99.90;;;;;;4698463;30;20049;-81
2022/05/22 05:04:00;;;;;;;4.20;1.98;;;13.10;99.90;;;;;;4685239;30;20060;-81
2022/05/22 05:06:31;;;;;;;5.53;1.75;;;13.40;99.90;;;;;;4670663;30;20419;-81
2022/05/22 05:09:02;;;;;;;4.90;2.47;;;13.60;99.90;;;;;;4681203;30;20042;-81
2022/05/22 05:11:33;;;;;;;2.75;2.30;;;13.90;99.90;;;;;;4681882;30;20066;-81
2022/05/22 05:14:04;;;;;;;1.65;1.55;;;14.10;99.90;;;;;;4681938;30;20061;-80
2022/05/22 05:16:34;;;;;;;2.65;2.42;;;14.50;99.90;;;;;;4653187;30;20501;-81
2022/05/22 05:19:13;;;;;;;2.15;1.58;;;14.80;99.90;;;;;;4684476;30;20519;-81
2022/05/22 05:21:48;;;;;;;2.67;2.17;;;15.00;99.90;;;;;;4684468;30;20500;-81
2022/05/22 05:28:34;;;;;;;3.13;2.47;;;15.30;99.90;;;;;;5678590;24;20040;31
2022/05/22 05:31:12;;;;;;;1.88;1.77;;;15.60;99.90;;;;;;4628393;30;20522;-81
2022/05/22 05:33:46;;;;;;;1.85;1.75;;;16.00;99.90;;;;;;4630439;30;20055;-81
2022/05/22 05:36:21;;;;;;;2.38;2.08;;;16.20;99.90;;;;;;4643792;30;20051;-81
2022/05/22 05:39:08;;;;;;;2.60;2.03;;;16.30;99.90;;;;;;4615668;30;20058;-81
2022/05/22 05:41:42;;;;;;;3.28;1.88;;;16.30;99.90;;;;;;4645882;30;20054;-81
2022/05/22 05:44:10;;;;;;;2.75;2.10;;;16.30;99.90;;;;;;4635159;30;20047;-81
2022/05/22 05:46:59;;;;;;;2.22;1.83;;;16.60;99.90;;;;;;4642989;30;20074;-81
2022/05/22 05:49:39;;;;;;;3.13;1.83;;;16.80;99.90;;;;;;4643898;30;20062;-81
2022/05/22 05:52:21;;;;;;;1.98;1.88;;;16.80;99.90;;;;;;4630001;30;20058;-81
2022/05/22 05:55:09;;;;;;;1.63;1.52;;;16.80;99.90;;;;;;4632714;30;20058;-81
2022/05/22 05:57:57;;;;;;;2.85;1.67;;;16.80;99.90;;;;;;4643964;30;20062;-81
2022/05/22 06:00:25;;;;;;;2.20;1.75;;;16.80;99.90;;;;;;4643728;30;20043;-82
2022/05/22 06:02:53;;;;;;;2.35;2.17;;;16.90;99.90;;;;;;4630771;30;20833;-81
2022/05/22 06:05:23;;;;;;;8.80;2.83;;;17.20;99.90;;;;;;4623533;30;20058;-81
2022/05/22 06:07:52;;;;;;;2.88;2.13;;;17.40;99.90;;;;;;4627904;31;20070;-81
2022/05/22 06:10:24;;;;;;;2.20;2.00;;;17.40;99.90;;;;;;4619463;30;20406;-81
2022/05/22 06:13:08;;;;;;;4.38;2.05;;;17.50;99.90;;;;;;4630323;30;20050;-80
2022/05/22 06:15:35;;;;;;;2.35;1.67;;;17.40;99.90;;;;;;4643815;30;20581;-81
2022/05/22 06:18:04;;;;;;;4.00;2.85;;;17.50;99.90;;;;;;4629853;30;20058;-81
2022/05/22 06:20:32;;;;;;;7.45;2.60;;;17.50;99.90;;;;;;4629887;30;20533;-81
2022/05/22 06:23:09;;;;;;;1.58;1.48;;;17.50;99.90;;;;;;4617684;30;20074;-82
2022/05/22 06:25:55;;;;;;;2.45;2.25;;;17.60;99.90;;;;;;4634464;30;20506;-80
2022/05/22 06:28:39;;;;;;;5.97;2.72;;;17.80;99.90;;;;;;4633163;30;20055;-81
2022/05/22 06:31:24;;;;;;;4.63;2.35;;;17.60;99.90;;;;;;4637249;30;20426;-80
2022/05/22 06:34:18;;;;;;;2.65;2.00;;;17.70;99.90;;;;;;4632059;30;20058;-80
2022/05/22 06:37:04;;;;;;;4.32;3.33;;;17.80;99.90;;;;;;4648622;30;20066;-80
2022/05/22 06:39:54;;;;;;;3.50;3.10;;;18.00;99.90;;;;;;4632988;30;20070;-80
2022/05/22 06:42:40;;;;;;;1.73;1.58;;;18.20;99.90;;;;;;4647081;30;20062;-80
2022/05/22 06:45:23;;;;;;;;;;;18.30;99.90;;;;;;4638493;30;20066;-80
2022/05/22 06:48:03;;;;;;;4.00;1.80;;;18.10;99.90;;;;;;4630440;31;19933;-79
2022/05/22 06:50:50;;;;;;;1.48;1.38;;;18.10;99.90;;;;;;4628892;31;20051;-80
2022/05/22 06:53:35;;;;;;;2.65;1.77;;;18.10;99.90;;;;;;4616298;31;20066;-80
2022/05/22 06:56:28;;;;;;;2.33;1.38;;;18.10;99.90;;;;;;4631048;30;20066;-80
2022/05/22 06:59:23;;;;;;;1.45;1.35;;;18.20;99.90;;;;;;4629661;31;20063;-80
2022/05/22 07:02:29;;;;;;;4.68;2.08;;;18.10;99.90;;;;;;4616035;31;20059;-80
2022/05/22 07:05:32;;;;;;;2.25;2.05;;;17.90;99.90;;;;;;4628769;31;20142;-80
2022/05/22 07:08:18;;;;;;;1.63;1.23;;;17.90;99.90;;;;;;4630773;31;20082;-80
2022/05/22 07:14:16;;;;;;;2.97;2.30;;;18.20;99.90;;;;;;4643223;30;20069;-79
2022/05/22 07:17:08;;;;;;;7.85;2.30;;;18.30;99.90;;;;;;4615872;31;20062;-80
2022/05/22 07:19:56;;;;;;;2.70;1.55;;;18.40;99.90;;;;;;4629998;31;20514;-81
2022/05/22 07:22:59;;;;;;;2.10;1.90;;;18.50;99.90;;;;;;4666581;30;20066;-80
2022/05/22 07:25:37;;;;;;;1.77;1.55;;;18.80;99.90;;;;;;4634342;30;20071;-81
2022/05/22 07:28:11;;;;;;;1.65;1.55;;;18.80;99.90;;;;;;4632240;30;20062;-81
2022/05/22 07:31:12;;;;;;;3.15;1.95;;;18.60;99.90;;;;;;4630875;30;20067;-81
2022/05/22 07:33:58;;;;;;;3.15;1.55;;;18.70;99.90;;;;;;4614856;31;20052;-81
2022/05/22 07:36:46;;;;;;;6.47;2.15;;;18.80;99.90;;;;;;4612231;31;20055;-84
2022/05/22 07:39:33;;;;;;;2.45;2.00;;;19.30;99.90;;;;;;4625772;31;20052;-84
2022/05/22 07:42:01;;;;;;;3.30;1.75;;;19.40;99.90;;;;;;4623924;31;20052;-86
2022/05/22 07:44:49;;;;;;;2.00;1.80;;;19.70;99.90;;;;;;4612679;30;20110;-84
2022/05/22 07:47:43;;;;;;;7.90;2.67;;;19.70;99.90;;;;;;4626043;30;20075;-85
2022/05/22 07:50:31;;;;;;;4.75;1.98;;;18.80;99.90;;;;;;4609121;31;20052;-85
2022/05/22 07:52:59;;;;;;;3.63;2.33;;;18.90;99.90;;;;;;4610456;31;20052;-86
2022/05/22 07:55:30;;;;;;;3.85;2.33;;;19.20;99.90;;;;;;4598180;31;20060;-85
2022/05/22 07:58:18;;;;;;;2.40;1.85;;;19.10;99.90;;;;;;4597094;31;20060;-86
2022/05/22 08:00:57;;;;;;;2.90;1.83;;;18.50;99.90;;;;;;4596041;31;20057;-86
2022/05/22 08:03:48;;;;;;;2.45;2.08;;;18.60;99.90;;;;;;4620074;30;20079;-86
2022/05/22 08:06:42;;;;;;;1.60;1.50;;;18.60;99.90;;;;;;4607897;31;20063;-86
2022/05/22 08:09:22;;;;;;;7.88;2.10;;;18.50;99.90;;;;;;4618097;31;20405;-87
2022/05/22 08:11:50;;;;;;;2.53;1.35;;;18.90;99.90;;;;;;4597070;31;20436;-87
2022/05/22 08:14:20;;;;;;;3.60;1.90;;;19.10;99.90;;;;;;4611261;31;20055;-88
2022/05/22 08:16:48;;;;;;;1.20;1.20;;;19.10;99.90;;;;;;4622297;31;20082;-83
2022/05/22 08:19:18;;;;;;;0.97;0.97;;;19.00;99.90;;;;;;4596336;31;20056;-87
2022/05/22 08:22:08;;;;;;;3.63;1.02;;;19.00;99.90;;;;;;4610829;31;20327;-85
2022/05/22 08:24:56;;;;;;;3.53;1.98;;;19.20;99.90;;;;;;4597348;31;20074;-87
2022/05/22 08:27:28;;;;;;;2.22;2.03;;;19.10;99.90;;;;;;4583859;31;20420;-89
2022/05/22 08:29:56;;;;;;;2.50;2.08;;;19.10;99.90;;;;;;4597338;31;20063;-86
2022/05/22 08:32:27;;;;;;;8.23;1.53;;;19.00;99.90;;;;;;4629117;30;20067;-86
2022/05/22 08:34:55;;;;;;;1.42;1.33;;;18.80;99.90;;;;;;4643736;30;20407;-86
2022/05/22 08:37:23;;;;;;;2.47;1.23;;;18.90;99.90;;;;;;4642952;30;20070;-86
2022/05/22 08:39:52;;;;;;;1.70;1.60;;;19.00;99.90;;;;;;4626931;31;20618;-85
2022/05/22 08:42:27;;;;;;;2.13;1.75;;;19.10;99.90;;;;;;4626962;30;20087;-85
2022/05/22 08:44:56;;;;;;;2.60;1.80;;;19.00;99.90;;;;;;4612166;31;20412;-84
2022/05/22 08:48:11;;;;;;;1.17;1.13;;;18.90;99.90;;;;;;4614163;31;20487;-85
2022/05/22 08:50:41;;;;;;;0.70;0.70;;;18.60;99.90;;;;;;4603378;31;20059;-85
2022/05/22 08:53:19;;;;;;;2.17;1.42;;;18.80;99.90;;;;;;4629890;31;20059;-85
2022/05/22 08:58:56;;;;;;;2.42;1.27;;;18.90;99.90;;;;;;4614587;31;20066;-84
2022/05/22 09:01:33;;;;;;;0.85;0.85;;;18.90;99.90;;;;;;4620023;31;20400;-86
2022/05/22 09:04:16;;;;;;;0.98;0.98;;;19.10;99.90;;;;;;4613126;31;20067;-84
2022/05/22 09:07:01;;;;;;;2.88;0.85;;;18.90;99.90;;;;;;4640725;30;20890;-85
2022/05/22 09:09:32;;;;;;;1.83;1.25;;;18.70;99.90;;;;;;4628594;31;20078;-85
2022/05/22 09:12:24;;;;;;;1.48;1.30;;;18.50;99.90;;;;;;4629442;31;20057;-84
2022/05/22 09:15:17;;;;;;;1.73;1.63;;;18.30;99.90;;;;;;4669858;30;20046;-85
2022/05/22 09:18:10;;;;;;;1.73;1.58;;;18.50;99.90;;;;;;4599913;31;20059;-86
2022/05/22 09:21:16;;;;;;;2.17;1.60;;;18.70;99.90;;;;;;4612423;31;20056;-87
2022/05/22 09:23:57;;;;;;;1.42;1.33;;;18.90;99.90;;;;;;4596932;31;20068;-85
2022/05/22 09:26:48;;;;;;;1.73;1.38;;;19.00;99.90;;;;;;4611879;31;20062;-84
2022/05/22 09:29:35;;;;;;;3.33;1.85;;;18.80;99.90;;;;;;4613019;31;20075;-86
2022/05/22 09:32:09;;;;;;;1.67;1.58;;;18.70;99.90;;;;;;4612876;31;20520;-87
2022/05/22 09:35:06;;;;;;;1.35;1.25;;;18.80;99.90;;;;;;4628051;31;20055;-85
2022/05/22 09:38:02;;;;;;;1.50;1.40;;;19.20;99.90;;;;;;4618546;30;20048;-84
2022/05/22 09:40:47;;;;;;;1.45;1.35;;;19.30;99.90;;;;;;4612515;31;20066;-84
2022/05/22 09:43:21;;;;;;;3.20;1.05;;;19.10;99.90;;;;;;4612644;31;20071;-85
2022/05/22 09:46:27;;;;;;;1.85;1.35;;;19.10;99.90;;;;;;4611755;31;20067;-84
2022/05/22 09:49:23;;;;;;;1.38;1.23;;;19.30;99.90;;;;;;4611279;31;20052;-83
2022/05/22 09:52:04;;;;;;;2.08;1.88;;;19.10;99.90;;;;;;4623787;31;20063;-85
2022/05/22 09:54:44;;;;;;;1.30;1.20;;;19.20;99.90;;;;;;4627789;31;20062;-84
2022/05/22 09:57:56;;;;;;;8.18;2.15;;;19.40;99.90;;;;;;4628538;31;20537;-87
2022/05/22 10:00:39;;;;;;;1.50;1.38;;;19.60;99.90;;;;;;4615163;31;20090;-87
2022/05/22 10:03:18;;;;;;;1.30;1.20;;;19.70;99.90;;;;;;4604054;31;20063;-86
2022/05/22 10:06:18;;;;;;;1.50;1.17;;;19.60;99.90;;;;;;4628337;31;20059;-84
2022/05/22 10:09:09;;;;;;;1.30;1.20;;;19.50;99.90;;;;;;4615461;31;20075;-87
2022/05/22 10:11:42;;;;;;;6.03;1.95;;;19.60;99.90;;;;;;4614372;31;20067;-87
2022/05/22 10:14:22;;;;;;;3.25;1.88;;;19.80;99.90;;;;;;4613717;31;20519;-86
2022/05/22 10:17:14;;;;;;;3.63;1.27;;;19.80;99.90;;;;;;4628257;31;20082;-87
2022/05/22 10:19:41;;;;;;;1.60;1.38;;;19.90;99.90;;;;;;4614786;31;20067;-86
2022/05/22 10:22:38;;;;;;;1.92;1.80;;;19.90;99.90;;;;;;4628515;31;20051;-87
2022/05/22 10:25:34;;;;;;;2.65;1.60;;;19.90;99.90;;;;;;4627812;31;20062;-85
2022/05/22 10:28:17;;;;;;;1.38;1.27;;;19.70;99.90;;;;;;4614965;31;20060;-86
2022/05/22 10:30:58;;;;;;;1.33;1.23;;;19.80;99.90;;;;;;4641853;30;20410;-85
2022/05/22 10:33:54;;;;;;;0.98;0.98;;;19.80;99.90;;;;;;4631051;31;20067;-86
2022/05/22 10:36:28;;;;;;;2.28;1.17;;;19.80;99.90;;;;;;4643552;30;20063;-86
2022/05/22 10:39:04;;;;;;;3.13;1.38;;;19.80;99.90;;;;;;4628668;31;20072;-85
2022/05/22 10:44:40;;;;;;;1.77;1.10;;;20.00;99.90;;;;;;4632037;30;20406;-86
2022/05/22 10:47:08;;;;;;;3.00;1.35;;;20.10;99.90;;;;;;4632189;31;20059;-85
2022/05/22 10:49:42;;;;;;;1.27;1.17;;;20.30;99.90;;;;;;4645764;30;20063;-85
2022/05/22 10:52:14;;;;;;;4.13;1.48;;;20.10;99.90;;;;;;4645605;30;20070;-85
2022/05/22 10:54:51;;;;;;;1.98;1.38;;;20.20;99.90;;;;;;4632742;31;20484;-85
2022/05/22 10:57:23;;;;;;;1.48;1.38;;;20.20;99.90;;;;;;4644217;30;20423;-85
2022/05/22 10:59:52;;;;;;;3.65;1.65;;;20.30;99.90;;;;;;4643779;30;20070;-84
2022/05/22 11:02:27;;;;;;;2.05;1.38;;;20.40;99.90;;;;;;4643852;30;20059;-85
2022/05/22 11:04:56;;;;;;;1.25;1.25;;;20.20;99.90;;;;;;4643827;30;20513;-85
2022/05/22 11:07:30;;;;;;;1.55;1.45;;;20.40;99.90;;;;;;4644278;30;20066;-86
2022/05/22 11:10:37;;;;;;;1.13;1.05;;;20.50;99.90;;;;;;4643722;30;20498;-85
2022/05/22 11:13:20;;;;;;;3.13;1.33;;;20.70;99.90;;;;;;4636813;30;20075;-85
2022/05/22 11:15:48;;;;;;;1.88;1.20;;;20.70;99.90;;;;;;4643605;30;20051;-86
2022/05/22 11:18:25;;;;;;;1.23;1.13;;;20.70;99.90;;;;;;4643060;30;20062;-85
2022/05/22 11:21:03;;;;;;;1.60;1.50;;;20.70;99.90;;;;;;4629752;30;20078;-85
2022/05/22 11:24:16;;;;;;;14.30;1.67;;;20.60;99.90;;;;;;4644236;30;20070;-84
2022/05/22 11:27:06;;;;;;;1.17;1.10;;;20.70;99.90;;;;;;4616177;31;20070;-85
2022/05/22 11:29:52;;;;;;;4.32;1.65;;;20.70;99.90;;;;;;4628656;30;20063;-80
2022/05/22 11:32:31;;;;;;;1.40;1.30;;;20.60;99.90;;;;;;4629605;30;20066;-80
2022/05/22 11:35:23;;;;;;;1.33;1.33;;;20.60;99.90;;;;;;4631476;31;20055;-80
2022/05/22 11:37:58;;;;;;;3.72;1.40;;;20.70;99.90;;;;;;4641551;30;20059;-82
2022/05/22 11:40:53;;;;;;;1.65;1.55;;;20.80;99.90;;;;;;4645019;30;20058;-78
2022/05/22 11:44:07;;;;;;;2.22;1.27;;;20.90;99.90;;;;;;4630328;31;20769;-79
2022/05/22 11:47:00;;;;;;;1.58;1.00;;;21.10;99.90;;;;;;4615147;30;20055;-80
2022/05/22 11:49:32;;;;;;;1.75;1.58;;;21.10;99.90;;;;;;4645660;30;20515;-80
2022/05/22 11:52:53;;;;;;;1.83;1.17;;;21.10;99.90;;;;;;4646390;30;20422;-80
2022/05/22 11:55:29;;;;;;;2.35;1.30;;;21.10;99.90;;;;;;4656116;30;20066;-79
2022/05/22 11:58:00;;;;;;;2.00;1.10;;;21.10;99.90;;;;;;4647038;30;20059;-80
2022/05/22 12:00:28;;;;;;;1.17;1.05;;;21.10;99.90;;;;;;4646717;30;20525;-80
2022/05/22 12:02:58;;;;;;;2.08;1.83;;;21.00;99.90;;;;;;4632426;30;20054;-79
2022/05/22 12:05:55;;;;;;;5.82;2.17;;;21.10;99.90;;;;;;4645850;30;20055;-80
2022/05/22 12:08:29;;;;;;;5.68;1.52;;;21.20;99.90;;;;;;4586285;30;20059;-80
2022/05/22 12:11:09;;;;;;;1.40;1.30;;;21.20;99.90;;;;;;4644970;30;20058;-80
2022/05/22 12:13:49;;;;;;;3.72;1.35;;;21.00;99.90;;;;;;4635466;30;20066;-85
2022/05/22 12:16:58;;;;;;;1.23;1.13;;;20.90;99.90;;;;;;4615510;30;20075;-80
2022/05/22 12:19:42;;;;;;;18.05;1.70;;;20.90;99.90;;;;;;4630697;30;20063;-80
2022/05/22 12:22:19;;;;;;;5.22;1.33;;;21.00;99.90;;;;;;4629728;30;20055;-80
2022/05/22 12:24:59;;;;;;;1.13;1.02;;;21.20;99.90;;;;;;4644003;30;20062;-81
2022/05/22 12:27:34;;;;;;;5.97;1.10;;;21.10;99.90;;;;;;4630413;30;20070;-81
2022/05/22 12:30:20;;;;;;;0.70;0.70;;;21.10;99.80;;;;;;4643508;30;20073;-80
2022/05/22 12:32:57;;;;;;;3.78;1.02;;;21.00;98.60;;;;;;4645565;30;20061;-81
2022/05/22 12:35:26;;;;;;;1.42;1.33;;;21.00;99.90;;;;;;4641841;30;20426;-81
2022/05/22 12:38:05;;;;;;;3.72;1.48;;;21.10;99.90;;;;;;4652208;30;20055;-80
2022/05/22 12:40:52;;;;;;;1.98;1.38;;;21.30;99.90;;;;;;4615157;31;20051;-81
2022/05/22 12:43:22;;;;;;;2.03;1.88;;;21.20;97.80;;;;;;4615145;31;20059;-81
2022/05/22 12:46:01;;;;;;;2.15;1.25;;;21.20;99.90;;;;;;4600738;31;20134;-81
2022/05/22 12:48:32;;;;;;;1.58;1.48;;;21.30;99.70;;;;;;4614412;31;20062;-81
2022/05/22 12:51:08;;;;;;;1.23;1.10;;;21.30;99.40;;;;;;4614663;31;20080;-81
2022/05/22 12:53:39;;;;;;;3.25;1.15;;;21.30;99.10;;;;;;4642658;30;20418;-82
2022/05/22 12:56:22;;;;;;;0.85;0.82;;;21.30;99.10;;;;;;4646155;30;20068;-81
2022/05/22 12:59:01;;;;;;;1.40;1.25;;;21.30;99.90;;;;;;4646992;30;20129;-81
2022/05/22 13:01:37;;;;;;;1.13;1.02;;;21.30;99.90;;;;;;4646097;30;20464;-80
2022/05/22 13:04:44;;;;;;;0.90;0.90;;;21.50;99.90;;;;;;4617326;30;20550;-81
2022/05/22 13:08:20;;;;;;;1.70;1.48;;;21.50;99.90;;;;;;4642440;30;20055;-80
2022/05/22 13:12:02;;;;;;;1.35;1.25;;;21.40;99.90;;;;;;4640203;30;20067;-81
2022/05/22 13:15:16;;;;;;;3.13;1.27;;;21.50;99.90;;;;;;4644718;30;20051;-81
2022/05/22 13:18:13;;;;;;;2.10;1.48;;;21.60;98.70;;;;;;4617444;30;20051;-81
2022/05/22 13:20:48;;;;;;;1.13;1.10;;;21.60;97.50;;;;;;4604787;30;20055;-81
2022/05/22 13:23:23;;;;;;;1.30;1.20;;;21.50;99.50;;;;;;4645508;30;20051;-81
2022/05/22 13:25:56;;;;;;;1.70;1.15;;;21.50;99.20;;;;;;4644826;30;20050;-81
2022/05/22 13:28:37;;;;;;;2.13;1.33;;;21.60;99.90;;;;;;4644843;30;20055;-80
2022/05/22 13:31:10;;;;;;;2.20;1.70;;;21.70;96.70;;;;;;4645994;30;20067;-81
2022/05/22 13:34:01;;;;;;;1.38;1.13;;;21.70;98.60;;;;;;4644103;30;20058;-80
2022/05/22 13:36:32;;;;;;;3.22;1.33;;;21.70;98.80;;;;;;4645879;30;20062;-81
2022/05/22 13:39:05;;;;;;;1.48;1.25;;;21.80;97.90;;;;;;4645644;30;20526;-81
2022/05/22 13:41:36;;;;;;;3.75;1.83;;;21.70;96.90;;;;;;4645815;30;20541;-81
2022/05/22 13:44:24;;;;;;;;;;;21.70;98.40;;;;;;4603932;30;20062;-83
2022/05/22 13:47:10;;;;;;;1.13;1.10;;;21.60;99.50;;;;;;4629568;30;19954;-80
2022/05/22 13:53:05;;;;;;;3.55;2.05;;;21.70;99.90;;;;;;4613579;30;20522;-82
2022/05/22 13:55:45;;;;;;;2.70;1.60;;;21.80;97.60;;;;;;4627339;31;20071;-81
2022/05/22 13:58:28;;;;;;;2.47;1.30;;;21.90;97.00;;;;;;4628185;30;20500;-83
2022/05/22 14:01:02;;;;;;;8.25;1.45;;;21.90;95.50;;;;;;4630614;30;20059;-80
2022/05/22 14:03:35;;;;;;;5.88;1.65;;;21.90;97.50;;;;;;4642201;30;20054;-82
2022/05/22 14:06:06;;;;;;;1.75;1.55;;;21.90;99.00;;;;;;4641551;30;20051;-81
2022/05/22 14:08:47;;;;;;;1.40;1.30;;;22.00;95.10;;;;;;4640777;30;20062;-81
2022/05/22 14:11:25;;;;;;;1.27;1.17;;;22.10;97.60;;;;;;4629664;31;20418;-82
2022/05/22 14:13:59;;;;;;;1.90;1.38;;;22.20;97.50;;;;;;4629195;30;20058;-81